createdAt,value
2023-04-27T00:01:59.681Z,102070.38
2023-04-27T00:04:28.068Z,102072.31
2023-04-27T00:06:57.367Z,102078.88
2023-04-27T00:09:25.114Z,102078.47
2023-04-27T00:11:52.877Z,102082.69
2023-04-27T00:14:20.946Z,102081.94
2023-04-27T00:16:48.790Z,102079.22
2023-04-27T00:19:16.574Z,102069.53
2023-04-27T00:21:44.442Z,102078.00
2023-04-27T00:24:13.594Z,102076.44
2023-04-27T00:26:41.611Z,102086.88
2023-04-27T00:29:09.356Z,102087.22
2023-04-27T00:31:37.132Z,102080.25
2023-04-27T00:34:04.906Z,102074.44
2023-04-27T00:36:34.696Z,102074.72
2023-04-27T00:39:03.847Z,102065.34
2023-04-27T00:41:34.350Z,102063.44
2023-04-27T00:44:02.147Z,102064.63
2023-04-27T00:46:30.910Z,102072.34
2023-04-27T00:48:59.046Z,102072.72
2023-04-27T00:51:30.282Z,102072.31
2023-04-27T00:53:59.754Z,102073.09
2023-04-27T00:56:27.615Z,102078.84
2023-04-27T00:58:57.740Z,102074.97
2023-04-27T01:01:26.896Z,102078.00
2023-04-27T01:03:54.988Z,102083.41
2023-04-27T01:06:24.040Z,102072.16
2023-04-27T01:08:51.821Z,102062.41
2023-04-27T01:11:19.954Z,102066.16
2023-04-27T01:13:47.727Z,102068.09
2023-04-27T01:16:18.563Z,102059.56
2023-04-27T01:18:46.810Z,102056.13
2023-04-27T01:21:14.656Z,102063.38
2023-04-27T01:23:43.828Z,102064.22
2023-04-27T01:26:16.214Z,102060.00
2023-04-27T01:28:44.100Z,102073.09
2023-04-27T01:31:12.743Z,102081.19
2023-04-27T01:33:41.002Z,102075.44
2023-04-27T01:36:09.887Z,102082.72
2023-04-27T01:38:37.900Z,102073.44
2023-04-27T01:41:09.109Z,102063.78
2023-04-27T01:43:37.957Z,102069.50
2023-04-27T01:46:09.690Z,102061.72
2023-04-27T01:48:38.162Z,102055.91
2023-04-27T01:51:06.211Z,102051.09
2023-04-27T01:53:34.172Z,102050.75
2023-04-27T01:56:02.031Z,102049.84
2023-04-27T01:58:31.525Z,102045.84
2023-04-27T02:00:59.339Z,102039.75
2023-04-27T02:03:27.344Z,102049.50
2023-04-27T02:05:55.251Z,102048.38
2023-04-27T02:08:23.184Z,102050.28
2023-04-27T02:10:51.028Z,102053.03
2023-04-27T02:13:18.955Z,102053.38
2023-04-27T02:15:48.310Z,102055.25
2023-04-27T02:18:16.640Z,102064.50
2023-04-27T02:20:44.486Z,102047.84
2023-04-27T02:23:12.607Z,102055.13
2023-04-27T02:25:42.910Z,102053.03
2023-04-27T02:28:10.765Z,102054.88
2023-04-27T02:30:39.050Z,102053.78
2023-04-27T02:33:08.332Z,102055.44
2023-04-27T02:35:36.339Z,102043.84
2023-04-27T02:38:04.227Z,102044.25
2023-04-27T02:40:32.164Z,102045.38
2023-04-27T02:42:59.988Z,102041.88
2023-04-27T02:45:28.597Z,102041.41
2023-04-27T02:47:56.443Z,102039.34
2023-04-27T02:50:25.685Z,102031.84
2023-04-27T02:52:53.514Z,102041.91
2023-04-27T02:55:21.471Z,102030.06
2023-04-27T02:57:49.216Z,102032.34
2023-04-27T03:00:18.899Z,102032.50
2023-04-27T03:02:47.367Z,102033.75
2023-04-27T03:05:15.264Z,102038.03
2023-04-27T03:07:44.409Z,102039.03
2023-04-27T03:10:12.344Z,102043.81
2023-04-27T03:12:40.118Z,102042.41
2023-04-27T03:15:08.888Z,102042.41
2023-04-27T03:17:37.317Z,102049.06
2023-04-27T03:20:08.578Z,102054.47
2023-04-27T03:22:37.502Z,102051.78
2023-04-27T03:25:08.408Z,102050.50
2023-04-27T03:27:36.328Z,102061.97
2023-04-27T03:30:04.476Z,102048.94
2023-04-27T03:32:32.331Z,102054.00
2023-04-27T03:35:02.929Z,102049.47
2023-04-27T03:37:31.217Z,102050.25
2023-04-27T03:39:58.963Z,102050.19
2023-04-27T03:42:29.480Z,102052.50
2023-04-27T03:44:57.250Z,102049.06
2023-04-27T03:47:25.154Z,102052.47
2023-04-27T03:49:53.586Z,102053.06
2023-04-27T03:52:22.139Z,102059.59
2023-04-27T03:54:50.402Z,102059.41
2023-04-27T03:57:19.259Z,102061.19
2023-04-27T03:59:49.487Z,102050.50
2023-04-27T04:02:17.348Z,102052.44
2023-04-27T04:04:45.906Z,102052.88
2023-04-27T04:07:13.760Z,102056.72
2023-04-27T04:09:43.320Z,102053.63
2023-04-27T04:12:11.991Z,102052.50
2023-04-27T04:14:41.176Z,102054.81
2023-04-27T04:17:11.703Z,102054.81
2023-04-27T04:19:41.833Z,102058.31
2023-04-27T04:22:09.628Z,102053.69
2023-04-27T04:24:37.612Z,102059.09
2023-04-27T04:27:05.464Z,102059.84
2023-04-27T04:29:33.692Z,102065.59
2023-04-27T04:32:01.638Z,102071.34
2023-04-27T04:34:33.509Z,102078.63
2023-04-27T04:37:02.035Z,102079.00
2023-04-27T04:39:32.020Z,102075.41
2023-04-27T04:42:00.127Z,102071.94
2023-04-27T04:44:31.309Z,102081.06
2023-04-27T04:46:59.165Z,102077.25
2023-04-27T04:49:27.545Z,102091.81
2023-04-27T04:51:56.692Z,102092.66
2023-04-27T04:54:24.449Z,102089.88
2023-04-27T04:56:52.253Z,102085.69
2023-04-27T04:59:20.027Z,102091.91
2023-04-27T05:01:47.918Z,102084.59
2023-04-27T05:04:18.649Z,102087.59
2023-04-27T05:06:46.966Z,102089.28
2023-04-27T05:09:16.241Z,102083.53
2023-04-27T05:11:44.023Z,102087.81
2023-04-27T05:14:11.836Z,102083.41
2023-04-27T05:16:39.606Z,102087.72
2023-04-27T05:19:08.359Z,102078.97
2023-04-27T05:21:36.223Z,102077.38
2023-04-27T05:24:04.170Z,102086.25
2023-04-27T05:26:33.290Z,102082.41
2023-04-27T05:29:01.018Z,102086.38
2023-04-27T05:31:28.914Z,102088.66
2023-04-27T05:33:56.676Z,102095.94
2023-04-27T05:36:24.427Z,102090.19
2023-04-27T05:38:52.202Z,102097.94
2023-04-27T05:41:19.955Z,102096.81
2023-04-27T05:43:49.045Z,102095.81
2023-04-27T05:46:16.869Z,102090.19
2023-04-27T05:48:44.741Z,102097.94
2023-04-27T05:51:12.500Z,102095.69
2023-04-27T05:53:40.450Z,102097.72
2023-04-27T05:56:08.976Z,102093.94
2023-04-27T05:58:36.710Z,102097.06
2023-04-27T06:01:06.136Z,102093.59
2023-04-27T06:03:34.185Z,102097.44
2023-04-27T06:06:02.600Z,102097.91
2023-04-27T06:08:30.794Z,102108.00
2023-04-27T06:10:58.606Z,102099.75
2023-04-27T06:13:26.392Z,102092.22
2023-04-27T06:15:54.254Z,102102.66
2023-04-27T06:18:23.422Z,102101.53
2023-04-27T06:20:51.328Z,102095.13
2023-04-27T06:23:19.104Z,102095.75
2023-04-27T06:25:46.951Z,102091.28
2023-04-27T06:28:14.703Z,102092.53
2023-04-27T06:30:42.486Z,102102.66
2023-04-27T06:33:10.400Z,102101.53
2023-04-27T06:35:39.612Z,102105.50
2023-04-27T06:38:08.059Z,102103.69
2023-04-27T06:40:37.029Z,102103.41
2023-04-27T06:43:04.874Z,102100.81
2023-04-27T06:45:32.660Z,102100.09
2023-04-27T06:48:00.614Z,102099.38
2023-04-27T06:50:29.216Z,102104.44
2023-04-27T06:52:58.509Z,102104.06
2023-04-27T06:55:26.382Z,102102.41
2023-04-27T06:57:54.189Z,102108.00
2023-04-27T07:00:22.340Z,102103.06
2023-04-27T07:02:50.311Z,102099.03
2023-04-27T07:05:18.195Z,102096.13
2023-04-27T07:07:46.084Z,102108.22
2023-04-27T07:10:15.441Z,102104.75
2023-04-27T07:12:43.768Z,102100.72
2023-04-27T07:15:11.780Z,102101.34
2023-04-27T07:17:39.598Z,102104.69
2023-04-27T07:20:09.035Z,102108.81
2023-04-27T07:22:36.882Z,102114.41
2023-04-27T07:25:05.480Z,102114.78
2023-04-27T07:27:35.686Z,102114.78
2023-04-27T07:30:03.540Z,102111.34
2023-04-27T07:32:31.564Z,102107.72
2023-04-27T07:34:59.539Z,102114.03
2023-04-27T07:37:28.714Z,102104.75
2023-04-27T07:39:56.515Z,102106.72
2023-04-27T07:42:25.036Z,102103.72
2023-04-27T07:44:54.381Z,102109.81
2023-04-27T07:47:22.241Z,102106.53
2023-04-27T07:49:50.147Z,102101.69
2023-04-27T07:52:17.962Z,102098.63
2023-04-27T07:54:45.766Z,102111.72
2023-04-27T07:57:13.590Z,102109.44
2023-04-27T07:59:41.899Z,102100.19
2023-04-27T08:02:19.805Z,102106.84
2023-04-27T08:04:48.914Z,102103.72
2023-04-27T08:07:17.946Z,102100.13
2023-04-27T08:09:46.075Z,102109.78
2023-04-27T08:12:13.929Z,102109.47
2023-04-27T08:14:41.983Z,102115.59
2023-04-27T08:17:11.362Z,102109.84
2023-04-27T08:19:39.787Z,102117.44
2023-04-27T08:22:08.400Z,102109.00
2023-04-27T08:24:36.352Z,102108.59
2023-04-27T08:27:04.460Z,102112.84
2023-04-27T08:29:32.477Z,102105.88
2023-04-27T08:32:02.559Z,102105.25
2023-04-27T08:34:32.109Z,102108.19
2023-04-27T08:37:00.393Z,102111.47
2023-04-27T08:39:28.753Z,102099.47
2023-04-27T08:41:56.574Z,102097.88
2023-04-27T08:44:24.391Z,102093.97
2023-04-27T08:46:52.620Z,102100.09
2023-04-27T08:49:20.912Z,102099.53
2023-04-27T08:51:50.314Z,102103.81
2023-04-27T08:54:18.337Z,102095.41
2023-04-27T08:56:46.123Z,102095.69
2023-04-27T08:59:17.748Z,102101.91
2023-04-27T09:01:47.056Z,102097.97
2023-04-27T09:04:16.086Z,102102.75
2023-04-27T09:06:47.578Z,102098.44
2023-04-27T09:09:25.172Z,102104.50
2023-04-27T09:11:52.989Z,102104.22
2023-04-27T09:14:22.463Z,102100.00
2023-04-27T09:16:57.238Z,102097.72
2023-04-27T09:19:25.610Z,102095.50
2023-04-27T09:22:04.357Z,102092.69
2023-04-27T09:24:33.767Z,102092.53
2023-04-27T09:27:01.782Z,102090.56
2023-04-27T09:29:37.010Z,102098.06
2023-04-27T09:32:17.307Z,102088.91
2023-04-27T09:34:45.472Z,102085.41
2023-04-27T09:37:14.227Z,102083.09
2023-04-27T09:39:44.070Z,102080.84
2023-04-27T09:42:13.078Z,102083.09
2023-04-27T09:44:40.960Z,102081.59
2023-04-27T09:47:09.064Z,102075.63
2023-04-27T09:49:36.947Z,102081.81
2023-04-27T09:52:04.923Z,102075.84
2023-04-27T09:54:35.624Z,102084.16
2023-04-27T09:57:23.328Z,102074.25
2023-04-27T10:00:08.001Z,102066.19
2023-04-27T10:02:53.264Z,102065.91
2023-04-27T10:05:41.495Z,102067.06
2023-04-27T10:08:11.688Z,102068.16
2023-04-27T10:10:49.002Z,102069.13
2023-04-27T10:13:26.278Z,102076.28
2023-04-27T10:15:55.467Z,102073.28
2023-04-27T10:18:28.567Z,102065.44
2023-04-27T10:20:56.446Z,102068.31
2023-04-27T10:23:25.421Z,102070.50
2023-04-27T10:25:55.118Z,102068.03
2023-04-27T10:28:24.347Z,102074.16
2023-04-27T10:30:52.242Z,102062.75
2023-04-27T10:33:22.768Z,102066.09
2023-04-27T10:35:58.390Z,102066.56
2023-04-27T10:38:29.567Z,102060.66
2023-04-27T10:40:58.870Z,102065.03
2023-04-27T10:43:29.976Z,102064.38
2023-04-27T10:46:09.355Z,102068.47
2023-04-27T10:48:37.253Z,102066.00
2023-04-27T10:51:06.433Z,102053.47
2023-04-27T10:53:37.992Z,102052.44
2023-04-27T10:56:07.026Z,102055.22
2023-04-27T10:58:48.221Z,102066.47
2023-04-27T11:01:25.175Z,102063.06
2023-04-27T11:03:56.366Z,102048.22
2023-04-27T11:06:24.333Z,102053.91
2023-04-27T11:08:52.430Z,102046.69
2023-04-27T11:11:21.290Z,102045.31
2023-04-27T11:13:52.848Z,102040.84
2023-04-27T11:16:20.852Z,102038.22
2023-04-27T11:18:48.908Z,102037.31
2023-04-27T11:21:18.696Z,102034.88
2023-04-27T11:23:46.442Z,102018.84
2023-04-27T11:26:16.035Z,102024.66
2023-04-27T11:28:44.550Z,102013.03
2023-04-27T11:31:13.746Z,102011.78
2023-04-27T11:33:49.342Z,102014.00
2023-04-27T11:36:17.976Z,102013.63
2023-04-27T11:38:46.136Z,102018.78
2023-04-27T11:41:14.232Z,102008.50
2023-04-27T11:43:46.036Z,102015.13
2023-04-27T11:46:15.306Z,102008.38
2023-04-27T11:48:43.270Z,102005.00
2023-04-27T11:51:12.622Z,102007.56
2023-04-27T11:53:42.498Z,102011.94
2023-04-27T11:56:12.075Z,102005.25
2023-04-27T11:58:40.971Z,101998.84
2023-04-27T12:01:11.984Z,101999.41
2023-04-27T12:03:41.785Z,102003.69
2023-04-27T12:06:27.454Z,101998.03
2023-04-27T12:08:56.936Z,101994.75
2023-04-27T12:11:26.271Z,101992.78
2023-04-27T12:13:54.202Z,101992.94
2023-04-27T12:16:23.211Z,101984.72
2023-04-27T12:18:52.536Z,101990.88
2023-04-27T12:21:20.313Z,101982.59
2023-04-27T12:23:48.103Z,101991.66
2023-04-27T12:26:15.890Z,101990.28
2023-04-27T12:28:43.753Z,101985.88
2023-04-27T12:31:14.896Z,101979.31
2023-04-27T12:33:42.765Z,101974.94
2023-04-27T12:36:11.950Z,101970.31
2023-04-27T12:38:39.804Z,101973.22
2023-04-27T12:41:07.598Z,101967.38
2023-04-27T12:43:36.253Z,101962.31
2023-04-27T12:46:04.602Z,101961.13
2023-04-27T12:48:33.400Z,101956.56
2023-04-27T12:51:01.228Z,101958.50
2023-04-27T12:53:30.624Z,101954.50
2023-04-27T12:56:00.708Z,101953.94
2023-04-27T12:58:28.834Z,101955.25
2023-04-27T13:00:58.701Z,101948.25
2023-04-27T13:03:26.562Z,101948.78
2023-04-27T13:05:54.456Z,101960.56
2023-04-27T13:08:22.508Z,101945.25
2023-04-27T13:10:51.720Z,101946.00
2023-04-27T13:13:19.516Z,101939.50
2023-04-27T13:15:47.336Z,101947.28
2023-04-27T13:18:15.151Z,101955.56
2023-04-27T13:20:43.024Z,101941.44
2023-04-27T13:23:10.903Z,101937.31
2023-04-27T13:25:39.359Z,101930.88
2023-04-27T13:28:08.578Z,101923.81
2023-04-27T13:30:36.576Z,101918.50
2023-04-27T13:33:18.535Z,101922.53
2023-04-27T13:35:50.087Z,101911.41
2023-04-27T13:38:17.926Z,101909.38
2023-04-27T13:40:45.826Z,101907.22
2023-04-27T13:43:14.988Z,101909.75
2023-04-27T13:45:43.526Z,101914.53
2023-04-27T13:48:11.346Z,101905.06
2023-04-27T13:50:39.225Z,101895.53
2023-04-27T13:53:06.976Z,101896.81
2023-04-27T13:55:35.271Z,101895.78
2023-04-27T13:58:02.997Z,101898.78
2023-04-27T14:00:33.532Z,101900.03
2023-04-27T14:03:04.208Z,101897.00
2023-04-27T14:05:32.524Z,101894.72
2023-04-27T14:08:00.316Z,101891.69
2023-04-27T14:10:28.070Z,101881.44
2023-04-27T14:12:56.557Z,101873.06
2023-04-27T14:15:24.340Z,101875.69
2023-04-27T14:17:53.566Z,101866.25
2023-04-27T14:20:21.358Z,101860.44
2023-04-27T14:22:49.295Z,101872.84
2023-04-27T14:25:17.316Z,101861.44
2023-04-27T14:27:45.057Z,101862.25
2023-04-27T14:30:13.646Z,101855.16
2023-04-27T14:32:41.759Z,101859.47
2023-04-27T14:35:10.946Z,101852.66
2023-04-27T14:37:38.689Z,101846.53
2023-04-27T14:40:07.856Z,101845.56
2023-04-27T14:42:35.848Z,101854.16
2023-04-27T14:45:03.666Z,101853.88
2023-04-27T14:47:31.774Z,101852.16
2023-04-27T14:49:59.662Z,101851.88
2023-04-27T14:52:28.890Z,101843.56
2023-04-27T14:54:56.960Z,101839.03
2023-04-27T14:57:24.953Z,101837.78
2023-04-27T14:59:52.927Z,101826.19
2023-04-27T15:02:20.761Z,101820.34
2023-04-27T15:04:48.605Z,101818.59
2023-04-27T15:07:16.402Z,101823.41
2023-04-27T15:09:45.601Z,101816.06
2023-04-27T15:12:13.498Z,101811.53
2023-04-27T15:14:41.288Z,101820.59
2023-04-27T15:17:09.071Z,101822.09
2023-04-27T15:19:36.923Z,101823.38
2023-04-27T15:22:04.709Z,101817.84
2023-04-27T15:24:32.482Z,101814.03
2023-04-27T15:27:01.650Z,101809.75
2023-04-27T15:29:29.458Z,101807.72
2023-04-27T15:31:57.254Z,101809.72
2023-04-27T15:34:25.503Z,101790.06
2023-04-27T15:36:53.456Z,101794.81
2023-04-27T15:39:21.218Z,101789.81
2023-04-27T15:41:49.252Z,101794.88
2023-04-27T15:44:18.349Z,101796.63
2023-04-27T15:46:47.071Z,101790.00
2023-04-27T15:49:15.098Z,101789.69
2023-04-27T15:51:43.240Z,101777.47
2023-04-27T15:54:11.322Z,101773.03
2023-04-27T15:56:39.067Z,101774.13
2023-04-27T15:59:06.885Z,101772.13
2023-04-27T16:01:36.529Z,101773.06
2023-04-27T16:04:04.784Z,101772.63
2023-04-27T16:06:34.405Z,101770.88
2023-04-27T16:09:03.333Z,101777.34
2023-04-27T16:11:31.307Z,101758.72
2023-04-27T16:13:59.927Z,101769.19
2023-04-27T16:16:27.892Z,101755.03
2023-04-27T16:18:58.204Z,101750.47
2023-04-27T16:21:26.842Z,101753.41
2023-04-27T16:23:55.223Z,101756.41
2023-04-27T16:26:23.113Z,101754.22
2023-04-27T16:28:51.616Z,101744.16
2023-04-27T16:31:19.382Z,101736.28
2023-04-27T16:33:48.269Z,101733.94
2023-04-27T16:36:17.457Z,101738.91
2023-04-27T16:38:46.131Z,101742.78
2023-04-27T16:41:14.088Z,101739.22
2023-04-27T16:43:41.871Z,101732.22
2023-04-27T16:46:11.345Z,101718.69
2023-04-27T16:48:39.273Z,101713.88
2023-04-27T16:51:07.503Z,101699.22
2023-04-27T16:53:37.110Z,101707.28
2023-04-27T16:56:05.269Z,101696.91
2023-04-27T16:58:34.593Z,101692.00
2023-04-27T17:01:02.380Z,101696.06
2023-04-27T17:03:30.665Z,101694.81
2023-04-27T17:05:58.564Z,101697.78
2023-04-27T17:08:26.806Z,101704.16
2023-04-27T17:10:55.994Z,101696.72
2023-04-27T17:13:23.787Z,101690.84
2023-04-27T17:15:52.203Z,101695.78
2023-04-27T17:18:20.018Z,101704.03
2023-04-27T17:20:47.862Z,101712.69
2023-04-27T17:23:15.672Z,101710.09
2023-04-27T17:25:44.107Z,101707.66
2023-04-27T17:28:13.285Z,101705.00
2023-04-27T17:30:42.433Z,101712.22
2023-04-27T17:33:10.792Z,101705.53
2023-04-27T17:35:38.602Z,101703.13
2023-04-27T17:38:06.522Z,101697.31
2023-04-27T17:40:34.300Z,101699.31
2023-04-27T17:43:02.119Z,101697.53
2023-04-27T17:45:31.933Z,101701.47
2023-04-27T17:47:59.753Z,101703.78
2023-04-27T17:50:27.989Z,101697.69
2023-04-27T17:52:55.897Z,101696.28
2023-04-27T17:55:24.824Z,101694.59
2023-04-27T17:57:52.639Z,101692.81
2023-04-27T18:00:21.344Z,101700.78
2023-04-27T18:02:50.713Z,101700.69
2023-04-27T18:05:18.701Z,101700.22
2023-04-27T18:07:47.208Z,101692.88
2023-04-27T18:10:15.236Z,101683.88
2023-04-27T18:12:43.170Z,101678.28
2023-04-27T18:15:11.635Z,101681.13
2023-04-27T18:17:39.520Z,101676.28
2023-04-27T18:20:10.822Z,101678.72
2023-04-27T18:22:39.819Z,101676.03
2023-04-27T18:25:08.866Z,101676.28
2023-04-27T18:27:37.455Z,101670.13
2023-04-27T18:30:06.281Z,101686.06
2023-04-27T18:32:35.416Z,101680.28
2023-04-27T18:35:03.922Z,101680.28
2023-04-27T18:37:33.185Z,101684.13
2023-04-27T18:40:01.070Z,101684.66
2023-04-27T18:42:29.447Z,101687.84
2023-04-27T18:45:00.511Z,101678.25
2023-04-27T18:47:28.680Z,101683.25
2023-04-27T18:49:56.436Z,101682.69
2023-04-27T18:52:24.182Z,101682.25
2023-04-27T18:54:53.343Z,101684.69
2023-04-27T18:57:21.137Z,101680.44
2023-04-27T18:59:48.982Z,101673.72
2023-04-27T19:02:16.818Z,101676.50
2023-04-27T19:04:52.890Z,101680.16
2023-04-27T19:07:29.761Z,101675.56
2023-04-27T19:09:58.905Z,101679.44
2023-04-27T19:12:26.782Z,101677.75
2023-04-27T19:14:54.554Z,101673.63
2023-04-27T19:17:22.573Z,101665.25
2023-04-27T19:19:50.643Z,101670.72
2023-04-27T19:22:18.537Z,101675.78
2023-04-27T19:24:46.391Z,101669.38
2023-04-27T19:27:15.738Z,101668.63
2023-04-27T19:29:51.813Z,101665.13
2023-04-27T19:32:20.284Z,101662.06
2023-04-27T19:34:48.282Z,101656.28
2023-04-27T19:37:16.122Z,101659.19
2023-04-27T19:39:43.932Z,101653.84
2023-04-27T19:42:11.785Z,101662.69
2023-04-27T19:44:40.925Z,101666.50
2023-04-27T19:47:10.723Z,101666.38
2023-04-27T19:49:39.155Z,101663.75
2023-04-27T19:52:07.549Z,101659.34
2023-04-27T19:54:38.093Z,101658.72
2023-04-27T19:57:06.107Z,101659.47
2023-04-27T19:59:33.935Z,101646.06
2023-04-27T20:02:03.151Z,101649.25
2023-04-27T20:04:31.164Z,101645.75
2023-04-27T20:06:59.059Z,101645.75
2023-04-27T20:09:26.886Z,101646.97
2023-04-27T20:11:55.657Z,101646.38
2023-04-27T20:14:23.499Z,101648.50
2023-04-27T20:16:51.249Z,101642.69
2023-04-27T20:19:22.592Z,101648.63
2023-04-27T20:21:50.390Z,101627.59
2023-04-27T20:24:18.385Z,101643.16
2023-04-27T20:26:49.919Z,101632.75
2023-04-27T20:29:17.703Z,101625.31
2023-04-27T20:31:45.933Z,101622.72
2023-04-27T20:34:13.976Z,101615.06
2023-04-27T20:36:44.315Z,101618.09
2023-04-27T20:39:12.188Z,101617.78
2023-04-27T20:41:41.935Z,101611.25
2023-04-27T20:44:10.396Z,101613.66
2023-04-27T20:46:38.395Z,101605.75
2023-04-27T20:49:06.421Z,101605.59
2023-04-27T20:51:34.337Z,101597.19
2023-04-27T20:54:03.545Z,101597.63
2023-04-27T20:56:32.868Z,101595.19
2023-04-27T20:59:00.789Z,101588.66
2023-04-27T21:01:28.610Z,101593.81
2023-04-27T21:03:56.533Z,101588.50
2023-04-27T21:06:24.355Z,101586.19
2023-04-27T21:08:52.151Z,101586.47
2023-04-27T21:11:21.314Z,101577.94
2023-04-27T21:13:49.127Z,101566.88
2023-04-27T21:16:16.942Z,101570.97
2023-04-27T21:18:44.794Z,101572.16
2023-04-27T21:21:12.581Z,101560.72
2023-04-27T21:23:40.737Z,101553.44
2023-04-27T21:26:09.002Z,101555.38
2023-04-27T21:28:38.113Z,101545.84
2023-04-27T21:31:06.488Z,101545.06
2023-04-27T21:33:34.366Z,101543.63
2023-04-27T21:36:04.723Z,101541.63
2023-04-27T21:38:32.508Z,101549.41
2023-04-27T21:41:00.397Z,101541.03
2023-04-27T21:43:28.512Z,101534.91
2023-04-27T21:45:57.655Z,101532.94
2023-04-27T21:48:25.422Z,101520.94
2023-04-27T21:50:53.172Z,101516.38
2023-04-27T21:53:20.976Z,101515.84
2023-04-27T21:55:49.386Z,101510.63
2023-04-27T21:58:17.169Z,101504.78
2023-04-27T22:00:44.928Z,101487.31
2023-04-27T22:03:14.303Z,101485.91
2023-04-27T22:05:42.140Z,101483.19
2023-04-27T22:08:09.935Z,101482.63
2023-04-27T22:10:37.700Z,101485.47
2023-04-27T22:13:17.344Z,101482.91
2023-04-27T22:15:46.851Z,101482.69
2023-04-27T22:18:16.361Z,101474.63
2023-04-27T22:20:44.435Z,101471.25
2023-04-27T22:23:12.220Z,101468.06
2023-04-27T22:25:42.547Z,101472.44
2023-04-27T22:28:10.487Z,101467.44
2023-04-27T22:30:40.060Z,101465.28
2023-04-27T22:33:08.062Z,101461.34
2023-04-27T22:35:38.273Z,101457.66
2023-04-27T22:38:06.994Z,101460.19
2023-04-27T22:40:34.768Z,101459.75
2023-04-27T22:43:02.554Z,101446.84
2023-04-27T22:45:30.521Z,101437.75
2023-04-27T22:47:58.566Z,101431.31
2023-04-27T22:50:26.701Z,101434.16
2023-04-27T22:52:55.803Z,101433.06
2023-04-27T22:55:23.676Z,101428.25
2023-04-27T22:57:53.630Z,101428.03
2023-04-27T23:00:21.787Z,101431.47
2023-04-27T23:02:49.755Z,101426.44
2023-04-27T23:05:17.660Z,101422.31
2023-04-27T23:07:46.331Z,101424.91
2023-04-27T23:10:15.499Z,101432.03
2023-04-27T23:12:43.226Z,101436.41
2023-04-27T23:15:12.458Z,101434.00
2023-04-27T23:17:40.328Z,101434.25
2023-04-27T23:20:24.199Z,101426.03
2023-04-27T23:22:55.655Z,101424.31
2023-04-27T23:25:24.978Z,101419.84
2023-04-27T23:27:53.232Z,101425.22
2023-04-27T23:30:21.935Z,101418.25
2023-04-27T23:32:49.821Z,101411.25
2023-04-27T23:35:17.953Z,101401.63
2023-04-27T23:37:45.745Z,101394.31
2023-04-27T23:40:14.086Z,101383.41
2023-04-27T23:42:43.251Z,101375.97
2023-04-27T23:45:12.158Z,101366.50
2023-04-27T23:47:39.977Z,101360.50
2023-04-27T23:50:08.836Z,101363.38
2023-04-27T23:52:37.071Z,101352.72
2023-04-27T23:55:05.418Z,101350.84
2023-04-27T23:57:33.228Z,101348.56
